createdAt,value
2022-08-17T00:01:52.317Z,97350.72
2022-08-17T00:04:23.858Z,97353.22
2022-08-17T00:06:54.157Z,97350.78
2022-08-17T00:09:24.763Z,97353.25
2022-08-17T00:12:40.660Z,97357.59
2022-08-17T00:14:50.548Z,97355.91
2022-08-17T00:17:21.173Z,97357.06
2022-08-17T00:19:51.362Z,97364.63
2022-08-17T00:22:34.758Z,97362.34
2022-08-17T00:25:09.808Z,97366.34
2022-08-17T00:27:43.054Z,97368.41
2022-08-17T00:30:16.009Z,97365.25
2022-08-17T00:33:14.033Z,97367.13
2022-08-17T00:35:41.920Z,97365.28
2022-08-17T00:38:13.444Z,97369.63
2022-08-17T00:40:48.438Z,97366.25
2022-08-17T00:43:30.459Z,97367.78
2022-08-17T00:46:01.403Z,97364.41
2022-08-17T00:48:32.369Z,97360.66
2022-08-17T00:51:10.627Z,97352.56
2022-08-17T00:53:46.342Z,97358.00
2022-08-17T00:56:23.862Z,97358.75
2022-08-17T00:58:58.237Z,97359.31
2022-08-17T01:01:28.856Z,97360.66
2022-08-17T01:04:00.646Z,97359.72
2022-08-17T01:06:33.103Z,97358.06
2022-08-17T01:09:04.947Z,97365.78
2022-08-17T01:11:37.252Z,97360.34
2022-08-17T01:14:11.801Z,97355.81
2022-08-17T01:16:42.455Z,97365.81
2022-08-17T01:19:20.312Z,97377.16
2022-08-17T01:22:00.238Z,97378.84
2022-08-17T01:24:36.258Z,97381.31
2022-08-17T01:27:10.466Z,97374.72
2022-08-17T01:29:45.457Z,97374.00
2022-08-17T01:32:16.300Z,97370.97
2022-08-17T01:34:50.544Z,97376.63
2022-08-17T01:37:24.129Z,97369.09
2022-08-17T01:40:01.262Z,97370.97
2022-08-17T01:42:37.807Z,97372.88
2022-08-17T01:45:13.078Z,97380.75
2022-08-17T01:47:43.490Z,97371.72
2022-08-17T01:50:18.166Z,97365.16
2022-08-17T01:52:50.746Z,97372.13
2022-08-17T01:55:31.716Z,97372.69
2022-08-17T01:58:02.268Z,97372.88
2022-08-17T02:00:59.380Z,97366.09
2022-08-17T02:03:22.805Z,97362.91
2022-08-17T02:05:53.495Z,97370.63
2022-08-17T02:08:37.198Z,97370.59
2022-08-17T02:11:17.059Z,97377.75
2022-08-17T02:13:49.609Z,97372.28
2022-08-17T02:16:37.776Z,97360.81
2022-08-17T02:19:13.057Z,97367.38
2022-08-17T02:21:45.364Z,97362.50
2022-08-17T02:24:58.306Z,97360.75
2022-08-17T02:27:15.839Z,97362.25
2022-08-17T02:29:45.971Z,97356.22
2022-08-17T02:32:27.957Z,97359.44
2022-08-17T02:34:59.522Z,97351.16
2022-08-17T02:37:31.815Z,97348.13
2022-08-17T02:40:02.923Z,97348.84
2022-08-17T02:42:41.489Z,97346.41
2022-08-17T02:45:15.520Z,97347.34
2022-08-17T02:47:47.095Z,97339.41
2022-08-17T02:50:20.471Z,97338.44
2022-08-17T02:53:01.713Z,97342.97
2022-08-17T02:55:37.598Z,97348.59
2022-08-17T02:58:11.696Z,97348.94
2022-08-17T03:00:48.287Z,97339.94
2022-08-17T03:03:21.570Z,97344.06
2022-08-17T03:05:54.156Z,97343.13
2022-08-17T03:08:24.013Z,97338.94
2022-08-17T03:10:54.624Z,97336.50
2022-08-17T03:13:27.338Z,97335.38
2022-08-17T03:15:57.504Z,97340.38
2022-08-17T03:18:28.127Z,97339.03
2022-08-17T03:21:00.136Z,97334.88
2022-08-17T03:23:32.349Z,97335.97
2022-08-17T03:26:03.354Z,97335.56
2022-08-17T03:28:36.169Z,97339.69
2022-08-17T03:31:07.036Z,97340.66
2022-08-17T03:33:37.560Z,97338.59
2022-08-17T03:36:09.731Z,97333.72
2022-08-17T03:38:40.242Z,97337.84
2022-08-17T03:41:11.594Z,97339.91
2022-08-17T03:43:44.420Z,97340.28
2022-08-17T03:46:34.637Z,97329.91
2022-08-17T03:49:20.833Z,97335.88
2022-08-17T03:52:03.422Z,97337.72
2022-08-17T03:54:45.976Z,97340.69
2022-08-17T03:57:16.553Z,97340.84
2022-08-17T03:59:49.611Z,97340.25
2022-08-17T04:02:30.532Z,97341.16
2022-08-17T04:05:01.461Z,97340.78
2022-08-17T04:07:33.790Z,97343.03
2022-08-17T04:10:04.292Z,97340.63
2022-08-17T04:12:48.572Z,97345.16
2022-08-17T04:15:21.855Z,97345.50
2022-08-17T04:17:52.069Z,97350.78
2022-08-17T04:20:25.315Z,97353.41
2022-08-17T04:23:05.190Z,97357.16
2022-08-17T04:25:39.103Z,97350.19
2022-08-17T04:28:15.708Z,97359.78
2022-08-17T04:30:50.344Z,97357.91
2022-08-17T04:33:24.168Z,97365.81
2022-08-17T04:35:56.824Z,97363.00
2022-08-17T04:38:31.978Z,97363.75
2022-08-17T04:41:16.100Z,97357.97
2022-08-17T04:43:48.770Z,97354.06
2022-08-17T04:46:26.580Z,97351.97
2022-08-17T04:48:59.727Z,97358.94
2022-08-17T04:51:33.185Z,97359.31
2022-08-17T04:54:06.750Z,97356.16
2022-08-17T04:56:38.576Z,97353.53
2022-08-17T04:59:12.574Z,97360.88
2022-08-17T05:01:48.013Z,97365.19
2022-08-17T05:04:34.023Z,97367.09
2022-08-17T05:07:05.853Z,97372.56
2022-08-17T05:09:35.738Z,97379.16
2022-08-17T05:12:07.314Z,97373.97
2022-08-17T05:14:44.882Z,97376.63
2022-08-17T05:17:19.864Z,97375.19
2022-08-17T05:19:51.999Z,97376.00
2022-08-17T05:22:22.350Z,97376.75
2022-08-17T05:24:53.885Z,97381.13
2022-08-17T05:27:26.917Z,97378.72
2022-08-17T05:30:06.164Z,97378.22
2022-08-17T05:32:51.150Z,97382.19
2022-08-17T05:35:21.577Z,97383.72
2022-08-17T05:37:52.095Z,97393.53
2022-08-17T05:40:25.755Z,97383.78
2022-08-17T05:43:07.601Z,97383.03
2022-08-17T05:45:56.146Z,97391.50
2022-08-17T05:48:35.486Z,97386.44
2022-08-17T05:51:27.443Z,97393.56
2022-08-17T05:54:12.867Z,97395.44
2022-08-17T05:57:03.066Z,97394.31
2022-08-17T05:59:48.298Z,97386.75
2022-08-17T06:02:26.665Z,97389.72
2022-08-17T06:05:20.039Z,97389.31
2022-08-17T06:07:58.382Z,97392.84
2022-08-17T06:10:37.278Z,97391.31
2022-08-17T06:13:19.086Z,97392.94
2022-08-17T06:16:02.404Z,97394.00
2022-08-17T06:18:41.648Z,97407.13
2022-08-17T06:21:20.898Z,97401.78
2022-08-17T06:24:04.125Z,97401.38
2022-08-17T06:26:41.084Z,97409.06
2022-08-17T06:29:24.883Z,97401.00
2022-08-17T06:31:55.085Z,97405.34
2022-08-17T06:34:25.287Z,97404.09
2022-08-17T06:37:05.568Z,97394.69
2022-08-17T06:39:48.439Z,97396.03
2022-08-17T06:42:54.154Z,97395.13
2022-08-17T06:45:31.551Z,97396.53
2022-08-17T06:48:10.610Z,97395.75
2022-08-17T06:50:47.519Z,97396.19
2022-08-17T06:53:27.631Z,97391.44
2022-08-17T06:56:04.634Z,97403.81
2022-08-17T06:58:37.786Z,97405.50
2022-08-17T07:01:16.899Z,97399.94
2022-08-17T07:03:54.762Z,97399.19
2022-08-17T07:06:32.615Z,97395.66
2022-08-17T07:09:18.252Z,97400.28
2022-08-17T07:11:53.239Z,97391.44
2022-08-17T07:14:38.521Z,97399.34
2022-08-17T07:17:15.897Z,97401.59
2022-08-17T07:19:48.918Z,97409.81
2022-08-17T07:22:30.516Z,97398.28
2022-08-17T07:25:23.924Z,97403.75
2022-08-17T07:28:00.332Z,97405.22
2022-08-17T07:30:37.151Z,97403.50
2022-08-17T07:33:22.847Z,97400.06
2022-08-17T07:35:53.739Z,97393.59
2022-08-17T07:38:28.471Z,97397.16
2022-08-17T07:41:13.526Z,97399.22
2022-08-17T07:43:52.978Z,97401.88
2022-08-17T07:46:39.631Z,97393.00
2022-08-17T07:49:37.917Z,97390.59
2022-08-17T07:52:47.945Z,97393.16
2022-08-17T07:55:03.546Z,97390.41
2022-08-17T07:57:39.744Z,97394.25
2022-08-17T08:00:29.169Z,97393.28
2022-08-17T08:03:25.418Z,97398.47
2022-08-17T08:06:01.401Z,97396.53
2022-08-17T08:08:37.038Z,97392.25
2022-08-17T08:11:11.584Z,97386.28
2022-08-17T08:13:46.761Z,97391.84
2022-08-17T08:16:25.578Z,97392.16
2022-08-17T08:18:59.526Z,97397.28
2022-08-17T08:21:46.584Z,97401.25
2022-08-17T08:24:43.377Z,97404.72
2022-08-17T08:27:27.632Z,97401.91
2022-08-17T08:30:10.925Z,97401.06
2022-08-17T08:33:02.347Z,97398.06
2022-08-17T08:35:37.073Z,97388.16
2022-08-17T08:38:20.060Z,97395.75
2022-08-17T08:41:08.835Z,97383.47
2022-08-17T08:43:53.511Z,97391.97
2022-08-17T08:46:34.768Z,97399.53
2022-08-17T08:50:03.267Z,97392.66
2022-08-17T08:53:12.330Z,97401.75
2022-08-17T08:55:54.509Z,97394.78
2022-08-17T08:58:41.276Z,97406.34
2022-08-17T09:01:24.170Z,97403.72
2022-08-17T09:04:24.607Z,97400.78
2022-08-17T09:07:09.769Z,97396.50
2022-08-17T09:09:57.311Z,97392.75
2022-08-17T09:12:42.293Z,97389.81
2022-08-17T09:15:20.228Z,97399.69
2022-08-17T09:18:58.977Z,97393.50
2022-08-17T09:21:00.797Z,97381.59
2022-08-17T09:23:42.494Z,97376.56
2022-08-17T09:26:17.445Z,97376.09
2022-08-17T09:28:54.724Z,97389.16
2022-08-17T09:31:46.461Z,97383.44
2022-08-17T09:34:29.569Z,97376.59
2022-08-17T09:37:21.642Z,97381.78
2022-08-17T09:40:08.780Z,97376.78
2022-08-17T09:42:50.030Z,97374.22
2022-08-17T09:45:33.241Z,97373.41
2022-08-17T09:48:10.132Z,97376.59
2022-08-17T09:51:03.440Z,97363.44
2022-08-17T09:53:40.420Z,97366.03
2022-08-17T09:56:29.712Z,97363.44
2022-08-17T09:59:27.507Z,97359.78
2022-08-17T10:02:34.836Z,97361.13
2022-08-17T10:05:12.142Z,97362.53
2022-08-17T10:07:49.367Z,97357.56
2022-08-17T10:10:33.003Z,97357.75
2022-08-17T10:16:23.646Z,97341.78
2022-08-17T10:19:08.133Z,97354.56
2022-08-17T10:22:01.238Z,97349.44
2022-08-17T10:25:23.480Z,97341.72
2022-08-17T10:28:01.754Z,97338.44
2022-08-17T10:30:36.808Z,97338.22
2022-08-17T10:33:16.186Z,97336.00
2022-08-17T10:35:57.296Z,97339.66
2022-08-17T10:38:46.192Z,97335.06
2022-08-17T10:41:30.830Z,97335.81
2022-08-17T10:44:39.054Z,97323.47
2022-08-17T10:47:12.833Z,97332.16
2022-08-17T10:49:47.621Z,97330.72
2022-08-17T10:52:51.891Z,97328.66
2022-08-17T10:55:25.840Z,97328.25
2022-08-17T10:58:24.773Z,97318.16
2022-08-17T11:01:04.136Z,97317.78
2022-08-17T11:03:35.022Z,97321.69
2022-08-17T11:06:17.821Z,97332.34
2022-08-17T11:09:20.034Z,97327.00
2022-08-17T11:12:10.490Z,97319.56
2022-08-17T11:15:02.830Z,97313.25
2022-08-17T11:18:10.386Z,97305.53
2022-08-17T11:21:06.766Z,97307.13
2022-08-17T11:24:02.061Z,97301.31
2022-08-17T11:26:36.324Z,97300.63
2022-08-17T11:29:19.795Z,97299.81
2022-08-17T11:32:15.426Z,97298.28
2022-08-17T11:34:46.656Z,97293.69
2022-08-17T11:37:50.328Z,97293.66
2022-08-17T11:41:08.345Z,97296.84
2022-08-17T11:44:05.838Z,97294.50
2022-08-17T11:47:08.972Z,97285.69
2022-08-17T11:50:25.730Z,97279.25
2022-08-17T11:52:58.239Z,97282.69
2022-08-17T11:56:04.838Z,97273.81
2022-08-17T11:58:42.761Z,97274.47
2022-08-17T12:01:16.090Z,97270.63
2022-08-17T12:03:55.574Z,97271.97
2022-08-17T12:06:48.725Z,97265.19
2022-08-17T12:09:24.692Z,97266.25
2022-08-17T12:12:12.682Z,97262.44
2022-08-17T12:15:09.626Z,97265.09
2022-08-17T12:17:42.983Z,97260.13
2022-08-17T12:20:24.361Z,97262.72
2022-08-17T12:23:05.558Z,97260.84
2022-08-17T12:25:42.493Z,97258.31
2022-08-17T12:28:24.915Z,97254.25
2022-08-17T12:30:56.358Z,97265.88
2022-08-17T12:33:29.026Z,97258.31
2022-08-17T12:36:04.124Z,97253.03
2022-08-17T12:38:39.962Z,97258.22
2022-08-17T12:41:24.296Z,97265.16
2022-08-17T12:44:03.788Z,97269.59
2022-08-17T12:46:37.790Z,97273.94
2022-08-17T12:49:19.810Z,97264.03
2022-08-17T12:51:50.992Z,97265.97
2022-08-17T12:54:36.728Z,97269.84
2022-08-17T12:57:14.328Z,97264.66
2022-08-17T12:59:48.914Z,97274.81
2022-08-17T13:02:33.685Z,97272.91
2022-08-17T13:05:04.946Z,97269.75
2022-08-17T13:07:44.698Z,97266.88
2022-08-17T13:10:28.637Z,97257.34
2022-08-17T13:13:05.009Z,97253.84
2022-08-17T13:15:44.713Z,97259.94
2022-08-17T13:18:40.311Z,97256.75
2022-08-17T13:21:22.339Z,97254.72
2022-08-17T13:24:04.253Z,97260.84
2022-08-17T13:26:40.835Z,97254.88
2022-08-17T13:29:24.750Z,97259.06
2022-08-17T13:32:04.766Z,97249.03
2022-08-17T13:34:56.210Z,97241.81
2022-08-17T13:37:35.965Z,97248.84
2022-08-17T13:40:34.744Z,97244.06
2022-08-17T13:43:08.243Z,97237.53
2022-08-17T13:45:51.120Z,97235.94
2022-08-17T13:48:29.868Z,97224.94
2022-08-17T13:51:18.928Z,97229.13
2022-08-17T13:54:00.978Z,97222.50
2022-08-17T13:56:39.510Z,97231.31
2022-08-17T13:59:16.240Z,97226.19
2022-08-17T14:01:53.475Z,97226.34
2022-08-17T14:04:27.940Z,97214.13
2022-08-17T14:07:01.349Z,97215.59
2022-08-17T14:09:37.435Z,97209.00
2022-08-17T14:12:13.271Z,97201.50
2022-08-17T14:14:49.812Z,97205.31
2022-08-17T14:17:20.220Z,97207.47
2022-08-17T14:19:50.985Z,97215.38
2022-08-17T14:22:28.491Z,97227.75
2022-08-17T14:25:01.706Z,97225.47
2022-08-17T14:27:51.961Z,97215.38
2022-08-17T14:30:29.728Z,97219.41
2022-08-17T14:33:02.321Z,97216.22
2022-08-17T14:35:32.724Z,97224.19
2022-08-17T14:38:03.402Z,97224.47
2022-08-17T14:40:34.803Z,97223.56
2022-08-17T14:43:04.970Z,97229.59
2022-08-17T14:45:37.729Z,97226.66
2022-08-17T14:48:10.304Z,97225.88
2022-08-17T14:50:44.299Z,97219.97
2022-08-17T14:53:17.963Z,97224.50
2022-08-17T14:55:48.724Z,97223.72
2022-08-17T14:58:19.579Z,97222.44
2022-08-17T15:00:53.501Z,97217.44
2022-08-17T15:03:23.671Z,97213.94
2022-08-17T15:05:53.999Z,97210.25
2022-08-17T15:08:24.161Z,97213.88
2022-08-17T15:10:54.535Z,97209.00
2022-08-17T15:13:27.218Z,97204.72
2022-08-17T15:16:02.663Z,97199.63
2022-08-17T15:18:33.768Z,97197.47
2022-08-17T15:21:06.775Z,97194.53
2022-08-17T15:23:36.963Z,97193.00
2022-08-17T15:26:07.313Z,97193.69
2022-08-17T15:28:37.807Z,97195.75
2022-08-17T15:31:10.666Z,97190.50
2022-08-17T15:33:41.060Z,97195.41
2022-08-17T15:36:11.951Z,97185.56
2022-08-17T15:38:42.144Z,97185.88
2022-08-17T15:41:18.505Z,97189.84
2022-08-17T15:43:50.441Z,97193.63
2022-08-17T15:46:27.316Z,97194.19
2022-08-17T15:48:59.598Z,97190.22
2022-08-17T15:51:32.865Z,97187.25
2022-08-17T15:54:18.779Z,97199.72
2022-08-17T15:56:52.637Z,97192.97
2022-08-17T15:59:22.857Z,97198.16
2022-08-17T16:03:14.774Z,97196.59
2022-08-17T16:04:46.900Z,97190.75
2022-08-17T16:07:26.455Z,97199.25
2022-08-17T16:09:57.032Z,97197.41
2022-08-17T16:12:28.066Z,97190.56
2022-08-17T16:14:59.891Z,97187.22
2022-08-17T16:17:39.514Z,97193.91
2022-08-17T16:20:20.223Z,97194.78
2022-08-17T16:22:54.154Z,97191.53
2022-08-17T16:25:49.048Z,97189.22
2022-08-17T16:28:21.944Z,97185.38
2022-08-17T16:30:52.121Z,97199.84
2022-08-17T16:33:24.889Z,97190.66
2022-08-17T16:35:55.101Z,97198.81
2022-08-17T16:38:25.285Z,97189.84
2022-08-17T16:40:55.459Z,97186.41
2022-08-17T16:43:25.784Z,97192.38
2022-08-17T16:45:55.926Z,97188.28
2022-08-17T16:48:28.805Z,97179.84
2022-08-17T16:51:03.456Z,97190.19
2022-08-17T16:53:34.864Z,97178.78
2022-08-17T16:56:05.347Z,97179.63
2022-08-17T16:58:35.938Z,97192.09
2022-08-17T17:01:08.020Z,97204.44
2022-08-17T17:03:44.007Z,97212.34
2022-08-17T17:06:22.219Z,97208.41
2022-08-17T17:08:59.292Z,97210.09
2022-08-17T17:11:36.466Z,97204.66
2022-08-17T17:14:12.517Z,97200.22
2022-08-17T17:16:48.755Z,97210.31
2022-08-17T17:19:35.096Z,97209.34
2022-08-17T17:22:18.387Z,97214.13
2022-08-17T17:25:10.931Z,97221.97
2022-08-17T17:27:53.368Z,97228.84
2022-08-17T17:30:28.193Z,97226.06
2022-08-17T17:33:05.813Z,97223.72
2022-08-17T17:35:50.015Z,97227.00
2022-08-17T17:38:29.209Z,97227.06
2022-08-17T17:41:07.271Z,97227.47
2022-08-17T17:43:40.102Z,97235.72
2022-08-17T17:46:27.574Z,97233.25
2022-08-17T17:48:58.436Z,97227.09
2022-08-17T17:52:08.500Z,97228.22
2022-08-17T17:54:46.395Z,97227.53
2022-08-17T17:57:32.621Z,97242.88
2022-08-17T18:00:10.932Z,97238.03
2022-08-17T18:03:03.084Z,97236.84
2022-08-17T18:05:51.389Z,97235.09
2022-08-17T18:08:45.147Z,97234.75
2022-08-17T18:12:06.577Z,97237.88
2022-08-17T18:14:58.286Z,97234.53
2022-08-17T18:17:31.157Z,97242.88
2022-08-17T18:20:01.617Z,97233.31
2022-08-17T18:22:31.973Z,97240.78
2022-08-17T18:25:04.886Z,97250.47
2022-08-17T18:27:38.295Z,97248.84
2022-08-17T18:30:30.286Z,97234.19
2022-08-17T18:33:26.650Z,97235.91
2022-08-17T18:35:59.275Z,97224.88
2022-08-17T18:38:35.759Z,97229.59
2022-08-17T18:41:24.418Z,97230.50
2022-08-17T18:44:06.157Z,97223.53
2022-08-17T18:46:39.043Z,97220.28
2022-08-17T18:49:28.873Z,97227.63
2022-08-17T18:52:14.902Z,97236.56
2022-08-17T18:55:08.741Z,97229.81
2022-08-17T18:57:47.544Z,97236.53
2022-08-17T19:00:35.926Z,97246.91
2022-08-17T19:03:25.166Z,97242.31
2022-08-17T19:05:58.879Z,97253.25
2022-08-17T19:08:38.307Z,97240.34
2022-08-17T19:11:13.336Z,97254.22
2022-08-17T19:13:50.166Z,97244.50
2022-08-17T19:16:27.086Z,97249.22
2022-08-17T19:19:07.643Z,97245.97
2022-08-17T19:21:43.195Z,97242.84
2022-08-17T19:24:20.979Z,97233.13
2022-08-17T19:26:59.052Z,97246.88
2022-08-17T19:29:40.191Z,97236.41
2022-08-17T19:32:11.172Z,97238.00
2022-08-17T19:34:44.802Z,97236.38
2022-08-17T19:37:30.541Z,97238.81
2022-08-17T19:40:35.023Z,97236.31
2022-08-17T19:43:20.085Z,97239.34
2022-08-17T19:46:07.240Z,97247.66
2022-08-17T19:48:48.580Z,97242.88
2022-08-17T19:51:30.736Z,97239.75
2022-08-17T19:54:09.492Z,97236.63
2022-08-17T19:56:50.799Z,97235.59
2022-08-17T19:59:37.842Z,97234.31
2022-08-17T20:02:26.744Z,97231.06
2022-08-17T20:05:01.911Z,97227.78
2022-08-17T20:07:42.084Z,97224.78
2022-08-17T20:10:21.002Z,97227.53
2022-08-17T20:12:54.969Z,97224.53
2022-08-17T20:15:32.094Z,97223.03
2022-08-17T20:18:15.694Z,97238.34
2022-08-17T20:20:57.617Z,97243.47
2022-08-17T20:23:52.166Z,97238.56
2022-08-17T20:26:27.457Z,97235.13
2022-08-17T20:29:39.594Z,97246.41
2022-08-17T20:32:29.983Z,97253.19
2022-08-17T20:35:28.787Z,97238.84
2022-08-17T20:38:03.392Z,97250.06
2022-08-17T20:40:40.934Z,97248.44
2022-08-17T20:43:54.384Z,97248.59
2022-08-17T20:46:43.133Z,97244.53
2022-08-17T20:49:26.167Z,97238.84
2022-08-17T20:52:07.813Z,97242.31
2022-08-17T20:54:54.007Z,97232.44
2022-08-17T20:57:50.358Z,97228.56
2022-08-17T21:00:50.238Z,97234.13
2022-08-17T21:03:54.338Z,97230.69
2022-08-17T21:06:27.543Z,97240.56
2022-08-17T21:09:32.592Z,97249.84
2022-08-17T21:12:05.799Z,97249.56
2022-08-17T21:15:00.410Z,97256.41
2022-08-17T21:17:51.608Z,97255.09
2022-08-17T21:20:37.220Z,97269.75
2022-08-17T21:23:30.270Z,97267.03
2022-08-17T21:26:30.422Z,97276.47
2022-08-17T21:29:31.338Z,97270.63
2022-08-17T21:32:24.663Z,97273.94
2022-08-17T21:35:51.009Z,97270.78
2022-08-17T21:38:23.978Z,97272.41
2022-08-17T21:40:56.736Z,97281.53
2022-08-17T21:43:33.218Z,97279.56
2022-08-17T21:46:08.398Z,97279.47
2022-08-17T21:48:49.460Z,97281.72
2022-08-17T21:51:29.814Z,97282.47
2022-08-17T21:54:04.602Z,97274.22
2022-08-17T21:56:38.573Z,97270.94
2022-08-17T21:59:28.357Z,97268.25
2022-08-17T22:02:01.581Z,97267.81
2022-08-17T22:04:34.689Z,97264.03
2022-08-17T22:07:08.871Z,97271.25
2022-08-17T22:09:47.168Z,97273.31
2022-08-17T22:12:21.398Z,97268.81
2022-08-17T22:15:06.090Z,97268.81
2022-08-17T22:17:40.505Z,97272.72
2022-08-17T22:20:15.935Z,97268.81
2022-08-17T22:23:28.183Z,97272.59
2022-08-17T22:26:05.960Z,97279.03
2022-08-17T22:28:46.883Z,97280.97
2022-08-17T22:31:22.918Z,97280.97
2022-08-17T22:33:55.957Z,97285.47
2022-08-17T22:36:32.156Z,97286.34
2022-08-17T22:39:05.490Z,97293.69
2022-08-17T22:41:54.077Z,97294.28
2022-08-17T22:44:29.655Z,97297.44
2022-08-17T22:47:11.136Z,97297.09
2022-08-17T22:49:53.969Z,97302.53
2022-08-17T22:52:34.522Z,97302.94
2022-08-17T22:55:23.489Z,97293.22
2022-08-17T22:58:06.332Z,97292.63
2022-08-17T23:00:42.381Z,97290.97
2022-08-17T23:03:19.618Z,97290.53
2022-08-17T23:06:06.233Z,97282.88
2022-08-17T23:08:42.760Z,97286.75
2022-08-17T23:11:14.376Z,97284.34
2022-08-17T23:13:44.611Z,97282.28
2022-08-17T23:16:15.207Z,97272.66
2022-08-17T23:18:50.951Z,97271.50
2022-08-17T23:21:26.640Z,97268.03
2022-08-17T23:23:59.196Z,97258.13
2022-08-17T23:26:30.044Z,97259.91
2022-08-17T23:29:04.439Z,97267.97
2022-08-17T23:31:35.069Z,97265.25
2022-08-17T23:34:12.078Z,97266.56
2022-08-17T23:36:52.482Z,97274.31
2022-08-17T23:39:28.240Z,97276.09
2022-08-17T23:42:00.426Z,97278.19
2022-08-17T23:44:31.514Z,97283.84
2022-08-17T23:47:03.674Z,97289.03
2022-08-17T23:49:37.666Z,97291.25
2022-08-17T23:52:14.990Z,97280.59
2022-08-17T23:54:49.940Z,97285.97
2022-08-17T23:57:33.837Z,97279.81
